Terminal Aerodrome Forecast
Issued by NWS Bismarck, ND

Home | Current Version | Previous Version | Text Only | Print | Product List | Glossary Off
Versions: 1 2 3 4 5 6 7 8 9 10 11 12 13 14 15 16 17

752
FTUS43 KBIS 191128
TAFBIS
TAF
KBIS 191128Z 1912/2012 08004KT P6SM FEW250 WS020/20030KT
     FM191500 16004KT P6SM SCT250
     FM191900 17009KT P6SM FEW300
     FM200000 15006KT P6SM FEW300=

USA.gov is the U.S. government's official web portal to all federal, state and local government web resources and services.